sensor_id;sensor_type;location;lat;lon;timestamp;P1;durP1;ratioP1;P2;durP2;ratioP2
11743;SDS011;5929;51.906;7.674;2023-05-10T00:02:08;30.67;;;13.70;;
11743;SDS011;5929;51.906;7.674;2023-05-10T00:04:35;37.15;;;15.07;;
11743;SDS011;5929;51.906;7.674;2023-05-10T00:07:01;37.88;;;14.68;;
11743;SDS011;5929;51.906;7.674;2023-05-10T00:09:28;38.53;;;15.52;;
11743;SDS011;5929;51.906;7.674;2023-05-10T00:11:56;30.98;;;15.25;;
11743;SDS011;5929;51.906;7.674;2023-05-10T00:14:24;40.03;;;15.65;;
11743;SDS011;5929;51.906;7.674;2023-05-10T00:16:50;33.50;;;15.25;;
11743;SDS011;5929;51.906;7.674;2023-05-10T00:19:17;35.25;;;15.75;;
11743;SDS011;5929;51.906;7.674;2023-05-10T00:21:44;31.35;;;15.07;;
11743;SDS011;5929;51.906;7.674;2023-05-10T00:24:11;45.63;;;16.55;;
11743;SDS011;5929;51.906;7.674;2023-05-10T00:26:38;41.33;;;17.48;;
11743;SDS011;5929;51.906;7.674;2023-05-10T00:29:06;43.17;;;17.25;;
11743;SDS011;5929;51.906;7.674;2023-05-10T00:31:32;43.47;;;17.63;;
11743;SDS011;5929;51.906;7.674;2023-05-10T00:33:59;36.80;;;16.10;;
11743;SDS011;5929;51.906;7.674;2023-05-10T00:36:26;35.95;;;15.55;;
11743;SDS011;5929;51.906;7.674;2023-05-10T00:38:56;28.90;;;14.88;;
11743;SDS011;5929;51.906;7.674;2023-05-10T00:41:23;32.55;;;15.20;;
11743;SDS011;5929;51.906;7.674;2023-05-10T00:43:49;32.60;;;14.20;;
11743;SDS011;5929;51.906;7.674;2023-05-10T00:46:17;30.70;;;14.63;;
11743;SDS011;5929;51.906;7.674;2023-05-10T00:48:44;32.60;;;14.52;;
11743;SDS011;5929;51.906;7.674;2023-05-10T00:51:11;34.67;;;14.63;;
11743;SDS011;5929;51.906;7.674;2023-05-10T00:53:39;31.48;;;13.70;;
11743;SDS011;5929;51.906;7.674;2023-05-10T00:56:07;27.73;;;14.00;;
11743;SDS011;5929;51.906;7.674;2023-05-10T00:58:34;33.33;;;14.27;;
11743;SDS011;5929;51.906;7.674;2023-05-10T01:01:01;32.80;;;14.07;;
11743;SDS011;5929;51.906;7.674;2023-05-10T01:03:29;29.92;;;14.07;;
11743;SDS011;5929;51.906;7.674;2023-05-10T01:05:59;26.98;;;12.73;;
11743;SDS011;5929;51.906;7.674;2023-05-10T01:08:26;28.52;;;13.48;;
11743;SDS011;5929;51.906;7.674;2023-05-10T01:10:54;28.50;;;13.40;;
11743;SDS011;5929;51.906;7.674;2023-05-10T01:13:25;24.17;;;12.13;;
11743;SDS011;5929;51.906;7.674;2023-05-10T01:15:59;25.73;;;12.60;;
11743;SDS011;5929;51.906;7.674;2023-05-10T01:18:29;28.02;;;11.98;;
11743;SDS011;5929;51.906;7.674;2023-05-10T01:21:01;24.77;;;12.23;;
11743;SDS011;5929;51.906;7.674;2023-05-10T01:26:49;30.10;;;13.60;;
11743;SDS011;5929;51.906;7.674;2023-05-10T01:29:42;28.70;;;12.90;;
11743;SDS011;5929;51.906;7.674;2023-05-10T01:32:30;24.70;;;11.98;;
11743;SDS011;5929;51.906;7.674;2023-05-10T01:35:02;24.83;;;11.00;;
11743;SDS011;5929;51.906;7.674;2023-05-10T01:37:36;23.35;;;11.27;;
11743;SDS011;5929;51.906;7.674;2023-05-10T01:40:09;22.65;;;10.25;;
11743;SDS011;5929;51.906;7.674;2023-05-10T01:42:46;20.02;;;9.82;;
11743;SDS011;5929;51.906;7.674;2023-05-10T01:45:18;19.48;;;9.00;;
11743;SDS011;5929;51.906;7.674;2023-05-10T01:47:54;18.88;;;8.68;;
11743;SDS011;5929;51.906;7.674;2023-05-10T01:50:30;19.67;;;8.13;;
11743;SDS011;5929;51.906;7.674;2023-05-10T01:52:59;17.58;;;8.13;;
11743;SDS011;5929;51.906;7.674;2023-05-10T01:55:28;16.92;;;7.80;;
11743;SDS011;5929;51.906;7.674;2023-05-10T01:57:58;16.92;;;7.97;;
11743;SDS011;5929;51.906;7.674;2023-05-10T02:00:29;18.20;;;7.95;;
11743;SDS011;5929;51.906;7.674;2023-05-10T02:02:58;13.55;;;5.63;;
11743;SDS011;5929;51.906;7.674;2023-05-10T02:05:30;7.57;;;3.50;;
11743;SDS011;5929;51.906;7.674;2023-05-10T02:07:59;6.03;;;3.00;;
11743;SDS011;5929;51.906;7.674;2023-05-10T02:10:27;6.50;;;1.85;;
11743;SDS011;5929;51.906;7.674;2023-05-10T02:12:54;6.45;;;2.08;;
11743;SDS011;5929;51.906;7.674;2023-05-10T02:15:24;6.30;;;2.00;;
11743;SDS011;5929;51.906;7.674;2023-05-10T02:17:53;7.82;;;2.08;;
11743;SDS011;5929;51.906;7.674;2023-05-10T02:20:22;6.00;;;1.80;;
11743;SDS011;5929;51.906;7.674;2023-05-10T02:22:54;5.63;;;2.20;;
11743;SDS011;5929;51.906;7.674;2023-05-10T02:25:23;4.82;;;2.00;;
11743;SDS011;5929;51.906;7.674;2023-05-10T02:27:51;5.20;;;2.20;;
11743;SDS011;5929;51.906;7.674;2023-05-10T02:30:21;5.78;;;2.05;;
11743;SDS011;5929;51.906;7.674;2023-05-10T02:32:49;6.00;;;2.25;;
11743;SDS011;5929;51.906;7.674;2023-05-10T02:35:17;7.32;;;2.58;;
11743;SDS011;5929;51.906;7.674;2023-05-10T02:37:46;6.72;;;3.50;;
11743;SDS011;5929;51.906;7.674;2023-05-10T02:40:14;6.32;;;3.00;;
11743;SDS011;5929;51.906;7.674;2023-05-10T02:42:41;10.75;;;3.33;;
11743;SDS011;5929;51.906;7.674;2023-05-10T02:45:11;11.15;;;4.05;;
11743;SDS011;5929;51.906;7.674;2023-05-10T02:47:40;11.80;;;3.88;;
11743;SDS011;5929;51.906;7.674;2023-05-10T02:50:09;10.00;;;4.60;;
11743;SDS011;5929;51.906;7.674;2023-05-10T02:52:38;10.77;;;4.55;;
11743;SDS011;5929;51.906;7.674;2023-05-10T02:55:09;10.80;;;4.88;;
11743;SDS011;5929;51.906;7.674;2023-05-10T02:57:40;11.30;;;4.47;;
11743;SDS011;5929;51.906;7.674;2023-05-10T03:00:09;10.30;;;4.47;;
11743;SDS011;5929;51.906;7.674;2023-05-10T03:02:37;10.85;;;4.70;;
11743;SDS011;5929;51.906;7.674;2023-05-10T03:05:04;10.45;;;5.88;;
11743;SDS011;5929;51.906;7.674;2023-05-10T03:07:31;11.15;;;5.35;;
11743;SDS011;5929;51.906;7.674;2023-05-10T03:09:59;12.38;;;4.85;;
11743;SDS011;5929;51.906;7.674;2023-05-10T03:12:33;9.88;;;4.90;;
11743;SDS011;5929;51.906;7.674;2023-05-10T03:15:11;9.20;;;4.97;;
11743;SDS011;5929;51.906;7.674;2023-05-10T03:17:47;12.27;;;5.40;;
11743;SDS011;5929;51.906;7.674;2023-05-10T03:20:21;12.77;;;5.97;;
11743;SDS011;5929;51.906;7.674;2023-05-10T03:22:52;14.48;;;6.85;;
11743;SDS011;5929;51.906;7.674;2023-05-10T03:25:22;12.75;;;6.32;;
11743;SDS011;5929;51.906;7.674;2023-05-10T03:27:51;13.32;;;6.40;;
11743;SDS011;5929;51.906;7.674;2023-05-10T03:30:18;14.18;;;6.53;;
11743;SDS011;5929;51.906;7.674;2023-05-10T03:32:48;16.00;;;7.25;;
11743;SDS011;5929;51.906;7.674;2023-05-10T03:35:15;12.70;;;6.43;;
11743;SDS011;5929;51.906;7.674;2023-05-10T03:37:42;14.57;;;7.80;;
11743;SDS011;5929;51.906;7.674;2023-05-10T03:40:08;14.95;;;7.72;;
11743;SDS011;5929;51.906;7.674;2023-05-10T03:42:38;17.63;;;8.25;;
11743;SDS011;5929;51.906;7.674;2023-05-10T03:45:07;17.20;;;8.55;;
11743;SDS011;5929;51.906;7.674;2023-05-10T03:47:35;23.88;;;9.55;;
11743;SDS011;5929;51.906;7.674;2023-05-10T03:50:02;17.65;;;9.38;;
11743;SDS011;5929;51.906;7.674;2023-05-10T03:52:29;22.30;;;9.40;;
11743;SDS011;5929;51.906;7.674;2023-05-10T03:54:56;16.35;;;8.75;;
11743;SDS011;5929;51.906;7.674;2023-05-10T03:57:23;20.42;;;8.40;;
11743;SDS011;5929;51.906;7.674;2023-05-10T03:59:50;16.90;;;8.63;;
11743;SDS011;5929;51.906;7.674;2023-05-10T04:02:18;17.23;;;8.80;;
11743;SDS011;5929;51.906;7.674;2023-05-10T04:04:45;19.17;;;8.50;;
11743;SDS011;5929;51.906;7.674;2023-05-10T04:07:13;18.33;;;8.15;;
11743;SDS011;5929;51.906;7.674;2023-05-10T04:09:40;17.02;;;8.05;;
11743;SDS011;5929;51.906;7.674;2023-05-10T04:12:07;18.50;;;8.70;;
11743;SDS011;5929;51.906;7.674;2023-05-10T04:14:34;18.25;;;9.52;;
11743;SDS011;5929;51.906;7.674;2023-05-10T04:17:00;18.02;;;9.18;;
11743;SDS011;5929;51.906;7.674;2023-05-10T04:19:30;18.65;;;9.90;;
11743;SDS011;5929;51.906;7.674;2023-05-10T04:21:57;24.63;;;11.38;;
11743;SDS011;5929;51.906;7.674;2023-05-10T04:24:24;27.00;;;11.95;;
11743;SDS011;5929;51.906;7.674;2023-05-10T04:26:51;27.65;;;11.98;;
11743;SDS011;5929;51.906;7.674;2023-05-10T04:29:19;28.65;;;12.10;;
11743;SDS011;5929;51.906;7.674;2023-05-10T04:31:46;27.40;;;12.80;;
11743;SDS011;5929;51.906;7.674;2023-05-10T04:34:14;28.90;;;13.38;;
11743;SDS011;5929;51.906;7.674;2023-05-10T04:36:42;28.50;;;13.70;;
11743;SDS011;5929;51.906;7.674;2023-05-10T04:39:09;30.50;;;13.13;;
11743;SDS011;5929;51.906;7.674;2023-05-10T04:41:37;27.98;;;13.07;;
11743;SDS011;5929;51.906;7.674;2023-05-10T04:44:04;31.10;;;14.25;;
11743;SDS011;5929;51.906;7.674;2023-05-10T04:46:31;36.33;;;14.02;;
11743;SDS011;5929;51.906;7.674;2023-05-10T04:48:58;33.67;;;13.98;;
11743;SDS011;5929;51.906;7.674;2023-05-10T04:51:25;33.30;;;13.75;;
11743;SDS011;5929;51.906;7.674;2023-05-10T04:53:53;38.78;;;14.82;;
11743;SDS011;5929;51.906;7.674;2023-05-10T04:56:20;36.50;;;14.60;;
11743;SDS011;5929;51.906;7.674;2023-05-10T04:58:46;38.25;;;14.85;;
11743;SDS011;5929;51.906;7.674;2023-05-10T05:01:14;45.63;;;15.60;;
11743;SDS011;5929;51.906;7.674;2023-05-10T05:03:41;39.40;;;14.65;;
11743;SDS011;5929;51.906;7.674;2023-05-10T05:06:10;40.75;;;16.83;;
11743;SDS011;5929;51.906;7.674;2023-05-10T05:08:37;42.58;;;16.38;;
11743;SDS011;5929;51.906;7.674;2023-05-10T05:11:07;45.40;;;17.63;;
11743;SDS011;5929;51.906;7.674;2023-05-10T05:13:34;50.42;;;18.60;;
11743;SDS011;5929;51.906;7.674;2023-05-10T05:16:01;57.38;;;18.92;;
11743;SDS011;5929;51.906;7.674;2023-05-10T05:18:28;56.63;;;19.13;;
11743;SDS011;5929;51.906;7.674;2023-05-10T05:20:55;65.93;;;21.83;;
11743;SDS011;5929;51.906;7.674;2023-05-10T05:23:21;58.67;;;20.25;;
11743;SDS011;5929;51.906;7.674;2023-05-10T05:25:50;56.28;;;20.55;;
11743;SDS011;5929;51.906;7.674;2023-05-10T05:28:19;58.00;;;21.02;;
11743;SDS011;5929;51.906;7.674;2023-05-10T05:30:47;55.08;;;21.88;;
11743;SDS011;5929;51.906;7.674;2023-05-10T05:33:14;65.60;;;22.63;;
11743;SDS011;5929;51.906;7.674;2023-05-10T05:35:41;66.13;;;23.00;;
11743;SDS011;5929;51.906;7.674;2023-05-10T05:38:12;66.97;;;23.27;;
11743;SDS011;5929;51.906;7.674;2023-05-10T05:40:39;72.38;;;23.88;;
11743;SDS011;5929;51.906;7.674;2023-05-10T05:43:06;79.78;;;24.45;;
11743;SDS011;5929;51.906;7.674;2023-05-10T05:45:34;71.32;;;24.70;;
11743;SDS011;5929;51.906;7.674;2023-05-10T05:48:01;72.72;;;23.48;;
11743;SDS011;5929;51.906;7.674;2023-05-10T05:50:28;97.38;;;26.15;;
11743;SDS011;5929;51.906;7.674;2023-05-10T05:52:54;82.13;;;24.83;;
11743;SDS011;5929;51.906;7.674;2023-05-10T05:55:22;87.30;;;26.05;;
11743;SDS011;5929;51.906;7.674;2023-05-10T05:57:49;78.03;;;25.00;;
11743;SDS011;5929;51.906;7.674;2023-05-10T06:00:16;93.70;;;27.52;;
11743;SDS011;5929;51.906;7.674;2023-05-10T06:02:44;97.18;;;27.38;;
11743;SDS011;5929;51.906;7.674;2023-05-10T06:05:11;99.40;;;29.52;;
11743;SDS011;5929;51.906;7.674;2023-05-10T06:07:39;123.65;;;31.63;;
11743;SDS011;5929;51.906;7.674;2023-05-10T06:10:07;113.22;;;29.20;;
11743;SDS011;5929;51.906;7.674;2023-05-10T06:12:34;92.25;;;29.02;;
11743;SDS011;5929;51.906;7.674;2023-05-10T06:15:01;103.15;;;28.10;;
11743;SDS011;5929;51.906;7.674;2023-05-10T06:17:28;89.18;;;28.15;;
11743;SDS011;5929;51.906;7.674;2023-05-10T06:19:56;98.78;;;27.95;;
11743;SDS011;5929;51.906;7.674;2023-05-10T06:22:23;109.78;;;29.05;;
11743;SDS011;5929;51.906;7.674;2023-05-10T06:24:49;108.88;;;28.50;;
11743;SDS011;5929;51.906;7.674;2023-05-10T06:27:16;112.15;;;30.73;;
11743;SDS011;5929;51.906;7.674;2023-05-10T06:29:43;114.30;;;29.70;;
11743;SDS011;5929;51.906;7.674;2023-05-10T06:32:10;103.95;;;29.70;;
11743;SDS011;5929;51.906;7.674;2023-05-10T06:34:37;107.25;;;29.60;;
11743;SDS011;5929;51.906;7.674;2023-05-10T06:37:05;101.10;;;29.38;;
11743;SDS011;5929;51.906;7.674;2023-05-10T06:39:31;104.82;;;29.70;;
11743;SDS011;5929;51.906;7.674;2023-05-10T06:42:01;85.75;;;27.90;;
11743;SDS011;5929;51.906;7.674;2023-05-10T06:44:29;88.63;;;26.50;;
11743;SDS011;5929;51.906;7.674;2023-05-10T06:46:56;82.55;;;27.73;;
11743;SDS011;5929;51.906;7.674;2023-05-10T06:49:23;80.82;;;25.80;;
11743;SDS011;5929;51.906;7.674;2023-05-10T06:51:50;90.50;;;27.45;;
11743;SDS011;5929;51.906;7.674;2023-05-10T06:54:18;98.05;;;26.92;;
11743;SDS011;5929;51.906;7.674;2023-05-10T06:56:45;99.72;;;28.20;;
11743;SDS011;5929;51.906;7.674;2023-05-10T06:59:11;96.47;;;31.17;;
11743;SDS011;5929;51.906;7.674;2023-05-10T07:01:40;123.90;;;33.35;;
11743;SDS011;5929;51.906;7.674;2023-05-10T07:04:06;102.28;;;34.47;;
11743;SDS011;5929;51.906;7.674;2023-05-10T07:06:36;119.30;;;36.22;;
11743;SDS011;5929;51.906;7.674;2023-05-10T07:09:03;150.93;;;38.97;;
11743;SDS011;5929;51.906;7.674;2023-05-10T07:11:31;126.20;;;41.83;;
11743;SDS011;5929;51.906;7.674;2023-05-10T07:13:58;146.95;;;44.13;;
11743;SDS011;5929;51.906;7.674;2023-05-10T07:16:25;153.50;;;45.83;;
11743;SDS011;5929;51.906;7.674;2023-05-10T07:18:51;177.68;;;49.58;;
11743;SDS011;5929;51.906;7.674;2023-05-10T07:21:18;160.93;;;46.70;;
11743;SDS011;5929;51.906;7.674;2023-05-10T07:23:48;166.30;;;48.78;;
11743;SDS011;5929;51.906;7.674;2023-05-10T07:26:15;137.65;;;45.80;;
11743;SDS011;5929;51.906;7.674;2023-05-10T07:28:43;138.63;;;44.63;;
11743;SDS011;5929;51.906;7.674;2023-05-10T07:31:10;156.13;;;48.72;;
11743;SDS011;5929;51.906;7.674;2023-05-10T07:33:37;140.70;;;45.80;;
11743;SDS011;5929;51.906;7.674;2023-05-10T07:36:03;136.00;;;44.85;;
11743;SDS011;5929;51.906;7.674;2023-05-10T07:38:30;131.50;;;46.80;;
11743;SDS011;5929;51.906;7.674;2023-05-10T07:40:57;134.32;;;48.30;;
11743;SDS011;5929;51.906;7.674;2023-05-10T07:43:24;146.30;;;49.47;;
11743;SDS011;5929;51.906;7.674;2023-05-10T07:45:52;135.85;;;47.47;;
11743;SDS011;5929;51.906;7.674;2023-05-10T07:48:19;129.98;;;46.92;;
11743;SDS011;5929;51.906;7.674;2023-05-10T07:50:46;119.93;;;44.85;;
11743;SDS011;5929;51.906;7.674;2023-05-10T07:53:13;112.60;;;44.30;;
11743;SDS011;5929;51.906;7.674;2023-05-10T07:55:39;117.10;;;44.45;;
11743;SDS011;5929;51.906;7.674;2023-05-10T07:58:06;116.80;;;44.47;;
11743;SDS011;5929;51.906;7.674;2023-05-10T08:00:33;102.00;;;41.53;;
11743;SDS011;5929;51.906;7.674;2023-05-10T08:03:01;88.70;;;39.40;;
11743;SDS011;5929;51.906;7.674;2023-05-10T08:05:28;88.78;;;38.42;;
11743;SDS011;5929;51.906;7.674;2023-05-10T08:07:55;78.25;;;36.53;;
11743;SDS011;5929;51.906;7.674;2023-05-10T08:10:23;89.15;;;39.10;;
11743;SDS011;5929;51.906;7.674;2023-05-10T08:12:50;85.57;;;39.78;;
11743;SDS011;5929;51.906;7.674;2023-05-10T08:15:17;76.72;;;36.97;;
11743;SDS011;5929;51.906;7.674;2023-05-10T08:17:44;81.43;;;37.30;;
11743;SDS011;5929;51.906;7.674;2023-05-10T08:20:12;77.72;;;36.60;;
11743;SDS011;5929;51.906;7.674;2023-05-10T08:22:41;69.43;;;35.45;;
11743;SDS011;5929;51.906;7.674;2023-05-10T08:25:08;58.40;;;33.25;;
11743;SDS011;5929;51.906;7.674;2023-05-10T08:27:37;64.18;;;31.83;;
11743;SDS011;5929;51.906;7.674;2023-05-10T08:30:05;56.63;;;31.23;;
11743;SDS011;5929;51.906;7.674;2023-05-10T08:32:32;54.97;;;30.20;;
11743;SDS011;5929;51.906;7.674;2023-05-10T08:34:59;60.65;;;30.33;;
11743;SDS011;5929;51.906;7.674;2023-05-10T08:37:30;66.22;;;33.55;;
11743;SDS011;5929;51.906;7.674;2023-05-10T08:39:58;62.40;;;32.85;;
11743;SDS011;5929;51.906;7.674;2023-05-10T08:42:25;55.33;;;29.65;;
11743;SDS011;5929;51.906;7.674;2023-05-10T08:44:54;50.28;;;28.83;;
11743;SDS011;5929;51.906;7.674;2023-05-10T08:47:23;51.17;;;29.27;;
11743;SDS011;5929;51.906;7.674;2023-05-10T08:49:51;54.53;;;30.67;;
11743;SDS011;5929;51.906;7.674;2023-05-10T08:52:18;54.25;;;30.70;;
11743;SDS011;5929;51.906;7.674;2023-05-10T08:54:48;53.22;;;29.45;;
11743;SDS011;5929;51.906;7.674;2023-05-10T08:57:18;52.00;;;29.38;;
11743;SDS011;5929;51.906;7.674;2023-05-10T08:59:45;47.75;;;26.58;;
11743;SDS011;5929;51.906;7.674;2023-05-10T09:02:12;40.22;;;23.35;;
11743;SDS011;5929;51.906;7.674;2023-05-10T09:04:39;39.67;;;23.25;;
11743;SDS011;5929;51.906;7.674;2023-05-10T09:07:07;39.85;;;24.38;;
11743;SDS011;5929;51.906;7.674;2023-05-10T09:09:33;39.60;;;24.48;;
11743;SDS011;5929;51.906;7.674;2023-05-10T09:12:03;39.10;;;22.67;;
11743;SDS011;5929;51.906;7.674;2023-05-10T09:14:30;27.05;;;19.48;;
11743;SDS011;5929;51.906;7.674;2023-05-10T09:16:59;25.95;;;17.33;;
11743;SDS011;5929;51.906;7.674;2023-05-10T09:19:27;26.00;;;16.67;;
11743;SDS011;5929;51.906;7.674;2023-05-10T09:21:54;25.35;;;16.65;;
11743;SDS011;5929;51.906;7.674;2023-05-10T09:24:24;26.58;;;16.50;;
11743;SDS011;5929;51.906;7.674;2023-05-10T09:26:52;25.75;;;16.80;;
11743;SDS011;5929;51.906;7.674;2023-05-10T09:29:20;28.30;;;17.58;;
11743;SDS011;5929;51.906;7.674;2023-05-10T09:31:47;27.30;;;18.73;;
11743;SDS011;5929;51.906;7.674;2023-05-10T09:34:17;26.80;;;17.60;;
11743;SDS011;5929;51.906;7.674;2023-05-10T09:36:52;21.90;;;14.93;;
11743;SDS011;5929;51.906;7.674;2023-05-10T09:39:20;22.17;;;14.25;;
11743;SDS011;5929;51.906;7.674;2023-05-10T09:41:55;21.50;;;14.60;;
11743;SDS011;5929;51.906;7.674;2023-05-10T09:44:24;21.38;;;15.75;;
11743;SDS011;5929;51.906;7.674;2023-05-10T09:46:52;22.35;;;14.48;;
11743;SDS011;5929;51.906;7.674;2023-05-10T09:49:18;19.90;;;13.25;;
11743;SDS011;5929;51.906;7.674;2023-05-10T09:51:46;22.85;;;15.02;;
11743;SDS011;5929;51.906;7.674;2023-05-10T09:54:14;20.45;;;14.07;;
11743;SDS011;5929;51.906;7.674;2023-05-10T09:56:41;21.45;;;15.85;;
11743;SDS011;5929;51.906;7.674;2023-05-10T09:59:09;24.35;;;16.25;;
11743;SDS011;5929;51.906;7.674;2023-05-10T10:01:41;24.35;;;15.82;;
11743;SDS011;5929;51.906;7.674;2023-05-10T10:04:08;22.52;;;15.30;;
11743;SDS011;5929;51.906;7.674;2023-05-10T10:06:36;22.75;;;13.40;;
11743;SDS011;5929;51.906;7.674;2023-05-10T10:09:03;21.88;;;15.18;;
11743;SDS011;5929;51.906;7.674;2023-05-10T10:11:32;20.05;;;14.32;;
11743;SDS011;5929;51.906;7.674;2023-05-10T10:14:00;19.88;;;14.55;;
11743;SDS011;5929;51.906;7.674;2023-05-10T10:16:27;21.27;;;15.40;;
11743;SDS011;5929;51.906;7.674;2023-05-10T10:18:56;23.30;;;14.70;;
11743;SDS011;5929;51.906;7.674;2023-05-10T10:21:24;22.92;;;15.82;;
11743;SDS011;5929;51.906;7.674;2023-05-10T10:23:53;19.58;;;13.32;;
11743;SDS011;5929;51.906;7.674;2023-05-10T10:26:21;18.67;;;13.45;;
11743;SDS011;5929;51.906;7.674;2023-05-10T10:28:49;18.52;;;13.18;;
11743;SDS011;5929;51.906;7.674;2023-05-10T10:31:25;21.17;;;14.18;;
11743;SDS011;5929;51.906;7.674;2023-05-10T10:34:03;23.58;;;13.95;;
11743;SDS011;5929;51.906;7.674;2023-05-10T10:36:32;21.35;;;13.75;;
11743;SDS011;5929;51.906;7.674;2023-05-10T10:39:08;17.33;;;13.13;;
11743;SDS011;5929;51.906;7.674;2023-05-10T10:41:37;19.25;;;13.30;;
11743;SDS011;5929;51.906;7.674;2023-05-10T10:44:25;18.67;;;14.18;;
11743;SDS011;5929;51.906;7.674;2023-05-10T10:46:59;20.90;;;13.85;;
11743;SDS011;5929;51.906;7.674;2023-05-10T10:49:37;21.73;;;15.57;;
11743;SDS011;5929;51.906;7.674;2023-05-10T10:52:14;20.63;;;14.45;;
11743;SDS011;5929;51.906;7.674;2023-05-10T10:54:46;19.92;;;13.23;;
11743;SDS011;5929;51.906;7.674;2023-05-10T10:57:17;20.80;;;12.95;;
11743;SDS011;5929;51.906;7.674;2023-05-10T10:59:46;19.65;;;15.25;;
11743;SDS011;5929;51.906;7.674;2023-05-10T11:02:32;18.33;;;13.95;;
11743;SDS011;5929;51.906;7.674;2023-05-10T11:05:24;21.63;;;15.25;;
11743;SDS011;5929;51.906;7.674;2023-05-10T11:08:12;22.52;;;14.13;;
11743;SDS011;5929;51.906;7.674;2023-05-10T11:10:49;21.05;;;13.57;;
11743;SDS011;5929;51.906;7.674;2023-05-10T11:13:32;20.20;;;14.63;;
11743;SDS011;5929;51.906;7.674;2023-05-10T11:16:09;19.02;;;13.57;;
11743;SDS011;5929;51.906;7.674;2023-05-10T11:18:37;18.75;;;13.60;;
11743;SDS011;5929;51.906;7.674;2023-05-10T11:21:07;20.38;;;14.85;;
11743;SDS011;5929;51.906;7.674;2023-05-10T11:23:47;20.15;;;14.57;;
11743;SDS011;5929;51.906;7.674;2023-05-10T11:26:16;19.75;;;14.10;;
11743;SDS011;5929;51.906;7.674;2023-05-10T11:28:43;20.10;;;15.20;;
11743;SDS011;5929;51.906;7.674;2023-05-10T11:31:12;25.92;;;16.73;;
11743;SDS011;5929;51.906;7.674;2023-05-10T11:33:43;20.48;;;15.30;;
11743;SDS011;5929;51.906;7.674;2023-05-10T11:36:12;24.65;;;15.98;;
11743;SDS011;5929;51.906;7.674;2023-05-10T11:38:43;21.67;;;16.48;;
11743;SDS011;5929;51.906;7.674;2023-05-10T11:41:10;31.25;;;18.63;;
11743;SDS011;5929;51.906;7.674;2023-05-10T11:43:38;29.00;;;19.63;;
11743;SDS011;5929;51.906;7.674;2023-05-10T11:46:06;36.13;;;23.23;;
11743;SDS011;5929;51.906;7.674;2023-05-10T11:48:33;37.58;;;24.00;;
11743;SDS011;5929;51.906;7.674;2023-05-10T11:51:00;41.38;;;25.40;;
11743;SDS011;5929;51.906;7.674;2023-05-10T11:53:29;37.30;;;25.48;;
11743;SDS011;5929;51.906;7.674;2023-05-10T11:56:02;32.88;;;23.13;;
11743;SDS011;5929;51.906;7.674;2023-05-10T11:58:30;30.50;;;21.55;;
11743;SDS011;5929;51.906;7.674;2023-05-10T12:00:57;22.63;;;18.17;;
11743;SDS011;5929;51.906;7.674;2023-05-10T12:03:24;26.88;;;18.13;;
11743;SDS011;5929;51.906;7.674;2023-05-10T12:05:51;24.20;;;16.92;;
11743;SDS011;5929;51.906;7.674;2023-05-10T12:08:20;26.42;;;18.30;;
11743;SDS011;5929;51.906;7.674;2023-05-10T12:10:50;26.38;;;18.27;;
11743;SDS011;5929;51.906;7.674;2023-05-10T12:13:18;27.42;;;19.85;;
11743;SDS011;5929;51.906;7.674;2023-05-10T12:15:46;28.48;;;18.80;;
11743;SDS011;5929;51.906;7.674;2023-05-10T12:18:13;29.98;;;19.42;;
11743;SDS011;5929;51.906;7.674;2023-05-10T12:20:40;29.85;;;19.02;;
11743;SDS011;5929;51.906;7.674;2023-05-10T12:23:08;25.27;;;17.60;;
11743;SDS011;5929;51.906;7.674;2023-05-10T12:25:36;22.85;;;17.05;;
11743;SDS011;5929;51.906;7.674;2023-05-10T12:28:05;22.85;;;16.02;;
11743;SDS011;5929;51.906;7.674;2023-05-10T12:30:34;24.75;;;15.82;;
11743;SDS011;5929;51.906;7.674;2023-05-10T12:33:02;21.75;;;14.60;;
11743;SDS011;5929;51.906;7.674;2023-05-10T12:35:38;18.67;;;14.57;;
11743;SDS011;5929;51.906;7.674;2023-05-10T12:38:26;17.92;;;12.88;;
11743;SDS011;5929;51.906;7.674;2023-05-10T12:40:55;20.08;;;14.30;;
11743;SDS011;5929;51.906;7.674;2023-05-10T12:43:24;22.23;;;14.52;;
11743;SDS011;5929;51.906;7.674;2023-05-10T12:45:51;21.17;;;15.20;;
11743;SDS011;5929;51.906;7.674;2023-05-10T12:48:23;22.38;;;14.52;;
11743;SDS011;5929;51.906;7.674;2023-05-10T12:50:50;19.90;;;13.52;;
11743;SDS011;5929;51.906;7.674;2023-05-10T12:53:17;17.38;;;13.05;;
11743;SDS011;5929;51.906;7.674;2023-05-10T12:55:44;20.38;;;14.05;;
11743;SDS011;5929;51.906;7.674;2023-05-10T12:58:11;22.25;;;14.07;;
11743;SDS011;5929;51.906;7.674;2023-05-10T13:00:41;22.95;;;14.70;;
11743;SDS011;5929;51.906;7.674;2023-05-10T13:03:08;18.88;;;12.60;;
11743;SDS011;5929;51.906;7.674;2023-05-10T13:05:36;22.30;;;15.18;;
11743;SDS011;5929;51.906;7.674;2023-05-10T13:08:02;18.77;;;13.20;;
11743;SDS011;5929;51.906;7.674;2023-05-10T13:10:31;19.90;;;12.95;;
11743;SDS011;5929;51.906;7.674;2023-05-10T13:12:58;18.17;;;11.60;;
11743;SDS011;5929;51.906;7.674;2023-05-10T13:15:25;17.90;;;12.15;;
11743;SDS011;5929;51.906;7.674;2023-05-10T13:17:56;15.00;;;11.05;;
11743;SDS011;5929;51.906;7.674;2023-05-10T13:20:23;16.23;;;11.35;;
11743;SDS011;5929;51.906;7.674;2023-05-10T13:22:51;18.58;;;11.65;;
11743;SDS011;5929;51.906;7.674;2023-05-10T13:25:20;15.55;;;11.18;;
11743;SDS011;5929;51.906;7.674;2023-05-10T13:27:49;13.27;;;9.35;;
11743;SDS011;5929;51.906;7.674;2023-05-10T13:30:15;15.27;;;10.20;;
11743;SDS011;5929;51.906;7.674;2023-05-10T13:32:42;13.85;;;10.43;;
11743;SDS011;5929;51.906;7.674;2023-05-10T13:35:10;11.38;;;7.90;;
11743;SDS011;5929;51.906;7.674;2023-05-10T13:37:37;10.38;;;7.07;;
11743;SDS011;5929;51.906;7.674;2023-05-10T13:40:04;12.70;;;6.50;;
11743;SDS011;5929;51.906;7.674;2023-05-10T13:42:32;10.10;;;7.00;;
11743;SDS011;5929;51.906;7.674;2023-05-10T13:44:59;14.15;;;8.68;;
11743;SDS011;5929;51.906;7.674;2023-05-10T13:47:26;14.60;;;9.50;;
11743;SDS011;5929;51.906;7.674;2023-05-10T13:49:53;13.38;;;10.07;;
11743;SDS011;5929;51.906;7.674;2023-05-10T13:52:22;11.82;;;7.95;;
11743;SDS011;5929;51.906;7.674;2023-05-10T13:54:49;10.02;;;7.07;;
11743;SDS011;5929;51.906;7.674;2023-05-10T13:57:17;10.68;;;7.47;;
11743;SDS011;5929;51.906;7.674;2023-05-10T13:59:44;12.02;;;8.35;;
11743;SDS011;5929;51.906;7.674;2023-05-10T14:02:11;11.95;;;9.13;;
11743;SDS011;5929;51.906;7.674;2023-05-10T14:04:38;11.55;;;8.65;;
11743;SDS011;5929;51.906;7.674;2023-05-10T14:07:05;12.90;;;9.38;;
11743;SDS011;5929;51.906;7.674;2023-05-10T14:09:35;15.43;;;10.88;;
11743;SDS011;5929;51.906;7.674;2023-05-10T14:12:02;15.75;;;11.15;;
11743;SDS011;5929;51.906;7.674;2023-05-10T14:14:29;16.13;;;10.30;;
11743;SDS011;5929;51.906;7.674;2023-05-10T14:16:56;15.18;;;10.35;;
11743;SDS011;5929;51.906;7.674;2023-05-10T14:19:24;17.75;;;11.10;;
11743;SDS011;5929;51.906;7.674;2023-05-10T14:21:51;13.55;;;10.43;;
11743;SDS011;5929;51.906;7.674;2023-05-10T14:24:18;18.30;;;12.35;;
11743;SDS011;5929;51.906;7.674;2023-05-10T14:26:46;17.33;;;12.52;;
11743;SDS011;5929;51.906;7.674;2023-05-10T14:29:21;19.50;;;13.43;;
11743;SDS011;5929;51.906;7.674;2023-05-10T14:31:48;18.67;;;14.48;;
11743;SDS011;5929;51.906;7.674;2023-05-10T14:34:17;20.75;;;14.35;;
11743;SDS011;5929;51.906;7.674;2023-05-10T14:36:44;18.95;;;13.73;;
11743;SDS011;5929;51.906;7.674;2023-05-10T14:39:10;22.88;;;15.15;;
11743;SDS011;5929;51.906;7.674;2023-05-10T14:41:38;21.52;;;14.63;;
11743;SDS011;5929;51.906;7.674;2023-05-10T14:44:07;25.80;;;15.07;;
11743;SDS011;5929;51.906;7.674;2023-05-10T14:46:35;22.45;;;16.17;;
11743;SDS011;5929;51.906;7.674;2023-05-10T14:49:02;23.85;;;15.32;;